createdAt,value
2023-04-16T00:00:39.263Z,82.98
2023-04-16T00:02:44.530Z,83.28
2023-04-16T00:04:49.686Z,83.33
2023-04-16T00:06:54.582Z,83.40
2023-04-16T00:08:59.573Z,83.58
2023-04-16T00:11:06.836Z,83.31
2023-04-16T00:13:11.578Z,83.23
2023-04-16T00:15:19.307Z,83.60
2023-04-16T00:17:26.849Z,83.01
2023-04-16T00:19:32.293Z,83.29
2023-04-16T00:21:39.984Z,83.25
2023-04-16T00:23:44.864Z,83.39
2023-04-16T00:25:50.126Z,83.53
2023-04-16T00:27:55.123Z,83.27
2023-04-16T00:29:59.998Z,83.03
2023-04-16T00:32:04.917Z,83.25
2023-04-16T00:34:12.540Z,83.02
2023-04-16T00:36:20.502Z,82.95
2023-04-16T00:38:28.103Z,83.02
2023-04-16T00:40:33.270Z,83.30
2023-04-16T00:42:38.370Z,82.94
2023-04-16T00:44:51.432Z,83.02
2023-04-16T00:46:59.179Z,83.12
2023-04-16T00:49:05.850Z,82.71
2023-04-16T00:51:20.991Z,82.63
2023-04-16T00:53:26.722Z,83.11
2023-04-16T00:55:36.917Z,82.74
2023-04-16T00:57:42.263Z,82.63
2023-04-16T00:59:50.669Z,82.92
2023-04-16T01:02:00.726Z,82.84
2023-04-16T01:04:10.544Z,82.98
2023-04-16T01:06:25.015Z,83.10
2023-04-16T01:08:32.308Z,83.37
2023-04-16T01:10:48.518Z,83.45
2023-04-16T01:12:58.877Z,83.09
2023-04-16T01:15:07.199Z,83.39
2023-04-16T01:17:12.605Z,83.33
2023-04-16T01:19:24.710Z,83.60
2023-04-16T01:21:35.240Z,83.52
2023-04-16T01:23:44.749Z,83.68
2023-04-16T01:25:55.079Z,83.28
2023-04-16T01:28:02.627Z,83.58
2023-04-16T01:30:20.488Z,83.71
2023-04-16T01:32:27.606Z,83.71
2023-04-16T01:34:44.726Z,84.12
2023-04-16T01:37:08.679Z,83.95
2023-04-16T01:39:20.626Z,83.89
2023-04-16T01:41:28.239Z,83.86
2023-04-16T01:43:38.978Z,83.90
2023-04-16T01:45:49.339Z,83.82
2023-04-16T01:47:57.323Z,84.16
2023-04-16T01:50:07.355Z,84.11
2023-04-16T01:52:15.707Z,83.92
2023-04-16T01:54:36.456Z,84.03
2023-04-16T01:56:49.844Z,83.85
2023-04-16T01:58:57.147Z,83.57
2023-04-16T02:01:08.460Z,83.88
2023-04-16T02:03:25.090Z,83.87
2023-04-16T02:05:32.967Z,83.64
2023-04-16T02:07:49.819Z,83.78
2023-04-16T02:09:59.886Z,84.18
2023-04-16T02:12:09.930Z,83.99
2023-04-16T02:14:22.912Z,84.23
2023-04-16T02:16:27.894Z,84.28
2023-04-16T02:18:32.936Z,84.09
2023-04-16T02:20:37.740Z,84.44
2023-04-16T02:22:48.495Z,84.63
2023-04-16T02:24:53.752Z,84.56
2023-04-16T02:26:58.950Z,84.93
2023-04-16T02:29:03.996Z,84.55
2023-04-16T02:31:08.880Z,84.92
2023-04-16T02:33:14.989Z,84.91
2023-04-16T02:35:19.831Z,84.81
2023-04-16T02:37:25.628Z,84.70
2023-04-16T02:39:33.142Z,85.09
2023-04-16T02:41:38.790Z,85.05
2023-04-16T02:43:43.635Z,85.18
2023-04-16T02:45:52.133Z,85.68
2023-04-16T02:47:57.210Z,85.51
2023-04-16T02:50:02.032Z,85.69
2023-04-16T02:52:07.102Z,85.68
2023-04-16T02:54:12.056Z,85.93
2023-04-16T02:56:22.136Z,86.12
2023-04-16T02:58:30.921Z,86.01
2023-04-16T03:00:35.959Z,86.71
2023-04-16T03:02:43.445Z,86.97
2023-04-16T03:04:48.869Z,86.99
2023-04-16T03:06:53.822Z,87.32
2023-04-16T03:08:58.689Z,87.67
2023-04-16T03:11:03.625Z,88.01
2023-04-16T03:13:11.164Z,88.44
2023-04-16T03:15:16.148Z,88.46
2023-04-16T03:17:23.792Z,88.72
2023-04-16T03:19:29.060Z,88.25
2023-04-16T03:21:34.253Z,89.00
2023-04-16T03:23:39.499Z,88.97
2023-04-16T03:25:46.929Z,89.13
2023-04-16T03:27:54.008Z,89.38
2023-04-16T03:30:01.505Z,89.62
2023-04-16T03:32:06.636Z,90.15
2023-04-16T03:34:11.838Z,90.13
2023-04-16T03:36:17.109Z,90.63
2023-04-16T03:38:26.951Z,91.01
2023-04-16T03:40:34.256Z,91.34
2023-04-16T03:42:44.330Z,91.21
2023-04-16T03:45:02.385Z,91.86
2023-04-16T03:47:12.994Z,92.16
2023-04-16T03:49:18.764Z,91.55
2023-04-16T03:51:24.133Z,91.53
2023-04-16T03:53:29.186Z,91.98
2023-04-16T03:55:35.669Z,91.46
2023-04-16T03:57:43.123Z,91.72
2023-04-16T03:59:48.238Z,91.67
2023-04-16T04:01:53.567Z,91.61
2023-04-16T04:04:02.258Z,91.69
2023-04-16T04:06:10.528Z,92.13
2023-04-16T04:08:21.302Z,91.86
2023-04-16T04:10:28.665Z,91.93
2023-04-16T04:12:35.180Z,91.58
2023-04-16T04:14:43.397Z,91.88
2023-04-16T04:16:50.946Z,91.77
2023-04-16T04:19:03.003Z,91.38
2023-04-16T04:21:14.230Z,92.10
2023-04-16T04:23:22.590Z,92.36
2023-04-16T04:25:30.870Z,92.03
2023-04-16T04:27:47.942Z,92.44
2023-04-16T04:32:13.556Z,92.22
2023-04-16T04:34:23.273Z,92.36
2023-04-16T04:36:31.189Z,92.12
2023-04-16T04:38:36.628Z,92.24
2023-04-16T04:40:42.364Z,92.55
2023-04-16T04:42:55.379Z,92.65
2023-04-16T04:45:02.673Z,92.50
2023-04-16T04:47:07.796Z,93.45
2023-04-16T04:49:13.134Z,93.10
2023-04-16T04:51:19.035Z,93.28
2023-04-16T04:53:26.889Z,93.27
2023-04-16T04:55:34.237Z,93.15
2023-04-16T04:57:42.594Z,93.00
2023-04-16T04:59:55.225Z,93.19
2023-04-16T05:02:06.524Z,93.07
2023-04-16T05:04:12.060Z,92.77
2023-04-16T05:06:17.359Z,92.37
2023-04-16T05:08:29.956Z,92.64
2023-04-16T05:10:37.859Z,92.42
2023-04-16T05:12:51.098Z,92.46
2023-04-16T05:14:56.438Z,92.10
2023-04-16T05:19:41.282Z,92.57
2023-04-16T05:21:46.186Z,92.18
2023-04-16T05:23:59.865Z,92.55
2023-04-16T05:26:04.904Z,92.62
2023-04-16T05:28:10.056Z,92.57
2023-04-16T05:30:21.242Z,92.58
2023-04-16T05:32:28.879Z,92.63
2023-04-16T05:34:34.384Z,92.48
2023-04-16T05:36:53.615Z,92.79
2023-04-16T05:39:02.208Z,92.45
2023-04-16T05:41:08.127Z,92.75
2023-04-16T05:43:14.017Z,92.44
2023-04-16T05:45:20.188Z,92.59
2023-04-16T05:47:29.465Z,92.58
2023-04-16T05:49:35.168Z,92.51
2023-04-16T05:51:45.635Z,92.57
2023-04-16T05:53:52.912Z,92.64
2023-04-16T05:56:05.090Z,92.76
2023-04-16T05:58:13.600Z,92.77
2023-04-16T06:00:22.393Z,92.89
2023-04-16T06:02:33.857Z,93.05
2023-04-16T06:04:39.000Z,92.57
2023-04-16T06:06:43.853Z,92.82
2023-04-16T06:08:49.244Z,92.83
2023-04-16T06:10:54.273Z,92.76
2023-04-16T06:13:01.893Z,92.64
2023-04-16T06:15:07.765Z,92.63
2023-04-16T06:17:12.601Z,92.37
2023-04-16T06:19:19.368Z,92.59
2023-04-16T06:21:26.990Z,92.85
2023-04-16T06:23:31.962Z,92.72
2023-04-16T06:25:36.824Z,92.58
2023-04-16T06:27:41.861Z,93.23
2023-04-16T06:29:51.576Z,93.47
2023-04-16T06:31:56.605Z,93.74
2023-04-16T06:34:01.712Z,94.09
2023-04-16T06:36:07.091Z,94.01
2023-04-16T06:38:12.084Z,94.34
2023-04-16T06:40:19.026Z,95.18
2023-04-16T06:42:23.959Z,94.85
2023-04-16T06:44:29.062Z,95.13
2023-04-16T06:46:39.125Z,95.32
2023-04-16T06:48:44.011Z,95.72
2023-04-16T06:50:49.247Z,96.05
2023-04-16T06:52:54.213Z,95.92
2023-04-16T06:54:59.884Z,95.65
2023-04-16T06:57:04.953Z,96.02
2023-04-16T06:59:16.353Z,95.96
2023-04-16T07:01:24.569Z,96.05
2023-04-16T07:03:34.240Z,95.78
2023-04-16T07:05:47.146Z,96.20
2023-04-16T07:08:02.501Z,95.96
2023-04-16T07:10:12.930Z,96.15
2023-04-16T07:12:22.016Z,95.48
2023-04-16T07:14:31.094Z,95.74
2023-04-16T07:16:38.512Z,95.69
2023-04-16T07:19:10.790Z,95.61
2023-04-16T07:21:23.773Z,95.83
2023-04-16T07:23:32.798Z,95.43
2023-04-16T07:25:48.793Z,95.58
2023-04-16T07:28:02.842Z,95.07
2023-04-16T07:30:12.880Z,95.16
2023-04-16T07:32:24.906Z,95.36
2023-04-16T07:34:39.850Z,95.09
2023-04-16T07:36:51.440Z,94.66
2023-04-16T07:38:56.727Z,94.75
2023-04-16T07:41:07.504Z,94.56
2023-04-16T07:43:13.756Z,94.65
2023-04-16T07:45:26.561Z,94.81
2023-04-16T07:47:32.733Z,94.08
2023-04-16T07:49:41.373Z,93.71
2023-04-16T07:51:50.372Z,94.19
2023-04-16T07:54:00.163Z,93.89
2023-04-16T07:56:10.772Z,93.00
2023-04-16T07:58:18.650Z,93.50
2023-04-16T08:00:26.552Z,92.75
2023-04-16T08:02:48.182Z,93.38
2023-04-16T08:05:03.132Z,92.98
2023-04-16T08:07:34.462Z,92.58
2023-04-16T08:10:01.559Z,92.94
2023-04-16T08:12:12.527Z,92.76
2023-04-16T08:14:18.579Z,92.76
2023-04-16T08:16:23.632Z,93.17
2023-04-16T08:18:31.009Z,92.45
2023-04-16T08:20:39.148Z,92.74
2023-04-16T08:22:46.076Z,92.04
2023-04-16T08:24:53.146Z,92.46
2023-04-16T08:27:08.118Z,92.87
2023-04-16T08:29:28.163Z,92.09
2023-04-16T08:31:33.114Z,91.69
2023-04-16T08:33:38.328Z,92.14
2023-04-16T08:35:45.951Z,91.05
2023-04-16T08:37:54.017Z,91.03
2023-04-16T08:39:59.163Z,90.76
2023-04-16T08:42:07.724Z,90.74
2023-04-16T08:44:19.584Z,91.06
2023-04-16T08:46:27.827Z,91.27
2023-04-16T08:48:36.869Z,91.29
2023-04-16T08:50:43.844Z,91.50
2023-04-16T08:52:54.486Z,91.63
2023-04-16T08:55:06.792Z,91.45
2023-04-16T08:57:14.485Z,90.97
2023-04-16T08:59:20.076Z,90.76
2023-04-16T09:01:28.157Z,90.89
2023-04-16T09:03:36.720Z,91.47
2023-04-16T09:05:42.844Z,91.42
2023-04-16T09:07:50.506Z,91.25
2023-04-16T09:09:58.656Z,90.99
2023-04-16T09:12:04.210Z,90.95
2023-04-16T09:14:12.946Z,90.72
2023-04-16T09:16:19.658Z,90.99
2023-04-16T09:18:24.732Z,90.47
2023-04-16T09:20:29.667Z,91.13
2023-04-16T09:22:35.109Z,90.75
2023-04-16T09:24:42.128Z,90.67
2023-04-16T09:26:50.304Z,90.19
2023-04-16T09:28:55.339Z,90.03
2023-04-16T09:31:11.827Z,90.17
2023-04-16T09:33:22.801Z,90.20
2023-04-16T09:35:30.457Z,89.49
2023-04-16T09:37:35.630Z,90.32
2023-04-16T09:39:40.798Z,89.82
2023-04-16T09:41:48.265Z,89.87
2023-04-16T09:43:59.542Z,89.83
2023-04-16T09:46:08.406Z,90.31
2023-04-16T09:48:13.587Z,90.32
2023-04-16T09:54:05.162Z,89.76
2023-04-16T09:57:26.093Z,89.29
2023-04-16T10:00:05.939Z,88.98
2023-04-16T10:03:38.119Z,89.88
2023-04-16T10:12:43.597Z,89.55
2023-04-16T10:15:29.659Z,89.61
2023-04-16T10:17:43.924Z,90.01
2023-04-16T10:22:40.679Z,89.33
2023-04-16T10:25:02.480Z,89.15
2023-04-16T10:30:32.800Z,89.19
2023-04-16T10:36:50.589Z,90.14
2023-04-16T10:39:27.996Z,89.75
2023-04-16T10:45:10.848Z,88.94
2023-04-16T10:47:38.293Z,88.41
2023-04-16T10:50:10.925Z,88.85
2023-04-16T10:58:04.394Z,88.96
2023-04-16T11:00:59.575Z,88.94
2023-04-16T11:03:53.263Z,89.21
2023-04-16T11:06:43.312Z,88.68
2023-04-16T11:12:55.880Z,88.06
2023-04-16T11:15:45.466Z,87.50
2023-04-16T11:21:21.752Z,87.94
2023-04-16T11:24:05.059Z,88.42
2023-04-16T11:26:23.683Z,88.22
2023-04-16T11:28:40.225Z,87.56
2023-04-16T11:30:46.723Z,87.22
2023-04-16T11:32:54.798Z,87.64
2023-04-16T11:35:37.977Z,87.42
2023-04-16T11:37:42.957Z,86.83
2023-04-16T11:39:55.083Z,86.99
2023-04-16T11:42:03.203Z,86.71
2023-04-16T11:45:12.197Z,87.15
2023-04-16T11:47:30.656Z,87.23
2023-04-16T11:49:54.727Z,86.34
2023-04-16T11:54:46.996Z,86.05
2023-04-16T11:56:53.740Z,85.94
2023-04-16T11:59:15.696Z,86.31
2023-04-16T12:01:23.865Z,85.83
2023-04-16T12:03:44.335Z,85.92
2023-04-16T12:05:49.543Z,85.45
2023-04-16T12:07:54.663Z,85.61
2023-04-16T12:10:09.219Z,85.34
2023-04-16T12:12:31.623Z,85.71
2023-04-16T12:14:39.632Z,85.64
2023-04-16T12:16:44.639Z,85.37
2023-04-16T12:19:38.704Z,85.25
2023-04-16T12:23:21.573Z,85.40
2023-04-16T12:25:55.693Z,84.65
2023-04-16T12:37:37.450Z,85.83
2023-04-16T12:40:29.031Z,85.22
2023-04-16T12:45:55.913Z,85.25
2023-04-16T12:48:48.711Z,85.11
2023-04-16T12:51:54.310Z,85.18
2023-04-16T12:54:03.663Z,84.51
2023-04-16T12:56:08.666Z,84.31
2023-04-16T12:58:13.995Z,83.63
2023-04-16T13:03:57.366Z,84.10
2023-04-16T13:06:59.737Z,83.45
2023-04-16T13:09:27.784Z,83.33
2023-04-16T13:11:33.315Z,83.58
2023-04-16T13:13:38.239Z,83.26
2023-04-16T13:15:44.723Z,82.96
2023-04-16T13:17:49.711Z,83.38
2023-04-16T13:19:54.657Z,84.32
2023-04-16T13:22:00.274Z,83.82
2023-04-16T13:24:11.141Z,84.31
2023-04-16T13:26:20.265Z,83.87
2023-04-16T13:28:25.208Z,83.06
2023-04-16T13:30:31.946Z,83.12
2023-04-16T13:32:41.090Z,83.34
2023-04-16T13:34:46.255Z,83.15
2023-04-16T13:36:54.122Z,83.15
2023-04-16T13:38:59.308Z,82.54
2023-04-16T13:41:04.138Z,83.55
2023-04-16T13:43:11.732Z,83.67
2023-04-16T13:45:16.905Z,84.21
2023-04-16T13:47:24.310Z,84.62
2023-04-16T13:49:29.338Z,85.13
2023-04-16T13:51:34.235Z,84.87
2023-04-16T13:53:39.174Z,83.54
2023-04-16T13:55:44.118Z,84.21
2023-04-16T13:57:50.183Z,84.36
2023-04-16T13:59:58.476Z,84.35
2023-04-16T14:02:05.292Z,83.88
2023-04-16T14:04:10.527Z,83.92
2023-04-16T14:06:21.036Z,84.23
2023-04-16T14:08:26.032Z,83.71
2023-04-16T14:10:30.966Z,83.52
2023-04-16T14:12:36.782Z,84.09
2023-04-16T14:14:42.093Z,83.81
2023-04-16T14:16:49.772Z,84.12
2023-04-16T14:18:54.787Z,84.18
2023-04-16T14:21:02.302Z,84.70
2023-04-16T14:23:07.618Z,84.37
2023-04-16T14:25:12.773Z,84.16
2023-04-16T14:27:20.024Z,84.77
2023-04-16T14:29:24.993Z,85.32
2023-04-16T14:31:29.863Z,85.27
2023-04-16T14:33:37.787Z,85.41
2023-04-16T14:35:43.162Z,85.98
2023-04-16T14:37:48.461Z,85.77
2023-04-16T14:39:54.244Z,85.71
2023-04-16T14:46:46.933Z,85.91
2023-04-16T14:56:21.414Z,85.89
2023-04-16T14:59:27.786Z,85.48
2023-04-16T15:02:35.144Z,84.94
2023-04-16T15:05:21.996Z,84.79
2023-04-16T15:07:26.912Z,84.36
2023-04-16T15:09:32.879Z,85.04
2023-04-16T15:11:41.964Z,85.28
2023-04-16T15:13:49.144Z,84.74
2023-04-16T15:15:54.141Z,85.43
2023-04-16T15:18:00.538Z,85.30
2023-04-16T15:20:06.820Z,85.40
2023-04-16T15:22:11.633Z,84.71
2023-04-16T15:24:16.394Z,84.46
2023-04-16T15:26:26.425Z,84.58
2023-04-16T15:28:35.767Z,84.44
2023-04-16T15:30:48.682Z,84.63
2023-04-16T15:32:55.188Z,84.46
2023-04-16T15:35:00.235Z,85.02
2023-04-16T15:37:05.694Z,84.94
2023-04-16T15:39:11.295Z,84.58
2023-04-16T15:41:16.609Z,84.46
2023-04-16T15:43:24.650Z,84.68
2023-04-16T15:45:32.752Z,84.70
2023-04-16T15:47:41.633Z,84.55
2023-04-16T15:49:49.911Z,84.52
2023-04-16T15:51:55.734Z,84.26
2023-04-16T15:54:01.119Z,84.74
2023-04-16T15:56:06.972Z,84.23
2023-04-16T15:59:13.915Z,84.24
2023-04-16T16:01:59.601Z,84.29
2023-04-16T16:11:26.644Z,83.92
2023-04-16T16:14:54.211Z,83.77
2023-04-16T16:21:06.128Z,84.73
2023-04-16T17:02:40.432Z,86.49
2023-04-16T17:05:58.065Z,86.41
2023-04-16T17:14:51.704Z,86.41
2023-04-16T17:17:43.687Z,86.68
2023-04-16T17:29:58.562Z,87.28
2023-04-16T17:32:03.705Z,87.50
2023-04-16T17:34:11.923Z,87.52
2023-04-16T17:36:19.888Z,87.49
2023-04-16T17:38:24.952Z,87.51
2023-04-16T17:40:30.184Z,87.65
2023-04-16T17:42:37.441Z,87.79
2023-04-16T17:44:42.475Z,87.29
2023-04-16T17:46:47.414Z,87.72
2023-04-16T17:48:55.322Z,87.84
2023-04-16T17:51:03.022Z,87.70
2023-04-16T17:53:08.036Z,87.82
2023-04-16T17:55:14.603Z,88.08
2023-04-16T17:57:19.600Z,87.67
2023-04-16T17:59:25.084Z,87.94
2023-04-16T18:01:30.238Z,88.35
2023-04-16T18:03:38.463Z,87.98
2023-04-16T18:05:43.970Z,87.73
2023-04-16T18:07:53.504Z,88.11
2023-04-16T18:09:58.529Z,88.71
2023-04-16T18:12:11.049Z,89.00
2023-04-16T18:14:21.586Z,89.18
2023-04-16T18:16:26.463Z,89.17
2023-04-16T18:18:34.555Z,89.45
2023-04-16T18:20:40.117Z,89.44
2023-04-16T18:22:45.126Z,89.31
2023-04-16T18:24:52.861Z,89.11
2023-04-16T18:26:57.687Z,89.58
2023-04-16T18:29:03.097Z,89.25
2023-04-16T18:31:08.263Z,89.17
2023-04-16T18:35:24.900Z,89.40
2023-04-16T18:37:29.946Z,89.89
2023-04-16T18:39:39.075Z,89.80
2023-04-16T18:41:48.559Z,90.25
2023-04-16T18:43:56.754Z,90.06
2023-04-16T18:46:01.746Z,90.22
2023-04-16T18:48:08.356Z,90.46
2023-04-16T18:50:13.483Z,90.04
2023-04-16T18:52:24.847Z,90.08
2023-04-16T18:54:30.416Z,89.76
2023-04-16T18:56:36.450Z,89.57
2023-04-16T18:58:51.182Z,89.72
2023-04-16T19:00:58.675Z,89.95
2023-04-16T19:03:07.314Z,89.93
2023-04-16T19:05:13.386Z,90.03
2023-04-16T19:07:20.524Z,89.98
2023-04-16T19:09:26.671Z,90.38
2023-04-16T19:11:31.949Z,90.24
2023-04-16T19:13:38.327Z,90.56
2023-04-16T19:15:45.884Z,90.75
2023-04-16T19:17:52.688Z,91.04
2023-04-16T19:19:57.745Z,90.67
2023-04-16T19:22:08.176Z,90.14
2023-04-16T19:24:15.757Z,89.53
2023-04-16T19:26:24.837Z,89.44
2023-04-16T19:28:31.511Z,89.95
2023-04-16T19:30:36.720Z,89.82
2023-04-16T19:32:44.728Z,89.64
2023-04-16T19:34:53.327Z,90.34
2023-04-16T19:37:04.678Z,90.27
2023-04-16T19:39:11.540Z,90.64
2023-04-16T19:41:18.265Z,90.57
2023-04-16T19:43:27.622Z,90.34
2023-04-16T19:45:41.162Z,90.24
2023-04-16T19:47:51.469Z,89.91
2023-04-16T19:49:58.202Z,90.51
2023-04-16T19:52:04.524Z,90.95
2023-04-16T19:54:15.789Z,90.48
2023-04-16T19:56:29.169Z,90.34
2023-04-16T19:58:42.597Z,90.73
2023-04-16T20:00:52.578Z,90.47
2023-04-16T20:03:00.564Z,90.16
2023-04-16T20:05:06.190Z,90.85
2023-04-16T20:07:11.339Z,90.40
2023-04-16T20:09:18.715Z,90.65
2023-04-16T20:11:27.278Z,90.70
2023-04-16T20:13:33.048Z,90.45
2023-04-16T20:15:38.674Z,90.30
2023-04-16T20:17:43.815Z,90.67
2023-04-16T20:19:51.459Z,90.78
2023-04-16T20:21:56.964Z,90.67
2023-04-16T20:24:03.049Z,90.28
2023-04-16T20:26:11.251Z,90.67
2023-04-16T20:28:21.295Z,91.05
2023-04-16T20:30:29.554Z,90.65
2023-04-16T20:32:34.621Z,90.46
2023-04-16T20:34:43.115Z,90.69
2023-04-16T20:36:55.215Z,91.17
2023-04-16T20:39:02.343Z,91.33
2023-04-16T20:41:10.431Z,91.62
2023-04-16T20:43:19.414Z,91.66
2023-04-16T20:45:24.646Z,91.79
2023-04-16T20:47:30.718Z,91.77
2023-04-16T20:49:35.850Z,91.72
2023-04-16T20:51:42.046Z,91.70
2023-04-16T20:53:52.331Z,92.08
2023-04-16T20:55:57.626Z,91.53
2023-04-16T20:58:02.635Z,91.71
2023-04-16T21:00:10.329Z,91.42
2023-04-16T21:02:21.245Z,91.50
2023-04-16T21:04:26.597Z,91.35
2023-04-16T21:06:33.034Z,91.28
2023-04-16T21:08:41.818Z,91.48
2023-04-16T21:10:51.660Z,91.47
2023-04-16T21:12:57.084Z,91.25
2023-04-16T21:15:09.661Z,91.38
2023-04-16T21:17:20.352Z,91.46
2023-04-16T21:19:38.002Z,91.36
2023-04-16T21:22:02.858Z,91.75
2023-04-16T21:24:09.192Z,91.36
2023-04-16T21:26:33.568Z,91.66
2023-04-16T21:28:56.180Z,91.85
2023-04-16T21:31:15.300Z,92.03
2023-04-16T21:33:26.404Z,92.14
2023-04-16T21:35:34.588Z,91.87
2023-04-16T21:37:49.558Z,91.90
2023-04-16T21:39:54.697Z,91.79
2023-04-16T21:42:02.439Z,92.06
2023-04-16T21:44:07.999Z,92.08
2023-04-16T21:46:12.945Z,92.07
2023-04-16T21:48:19.843Z,91.93
2023-04-16T21:50:31.008Z,91.63
2023-04-16T21:52:41.373Z,91.58
2023-04-16T21:54:54.289Z,91.92
2023-04-16T21:57:11.560Z,91.84
2023-04-16T21:59:19.875Z,91.87
2023-04-16T22:01:34.172Z,91.87
2023-04-16T22:03:43.241Z,91.81
2023-04-16T22:05:54.762Z,92.14
2023-04-16T22:08:08.196Z,91.90
2023-04-16T22:10:42.289Z,92.79
2023-04-16T22:13:02.782Z,92.05
2023-04-16T22:15:14.627Z,92.45
2023-04-16T22:17:27.916Z,92.18
2023-04-16T22:19:35.212Z,92.49
2023-04-16T22:21:41.535Z,92.19
2023-04-16T22:23:50.978Z,92.53
2023-04-16T22:25:58.571Z,92.67
2023-04-16T22:28:06.638Z,92.68
2023-04-16T22:30:13.444Z,92.04
2023-04-16T22:32:21.393Z,92.28
2023-04-16T22:34:26.369Z,92.51
2023-04-16T22:36:33.312Z,92.56
2023-04-16T22:38:39.122Z,92.20
2023-04-16T22:40:44.039Z,92.07
2023-04-16T22:42:50.501Z,92.09
2023-04-16T22:44:58.007Z,91.97
2023-04-16T22:47:02.845Z,91.98
2023-04-16T22:49:08.098Z,91.78
2023-04-16T22:51:12.961Z,91.47
2023-04-16T22:53:22.204Z,91.42
2023-04-16T22:55:39.462Z,91.49
2023-04-16T22:57:44.657Z,91.47
2023-04-16T22:59:56.076Z,91.83
2023-04-16T23:02:11.760Z,92.57
2023-04-16T23:04:31.192Z,93.10
2023-04-16T23:06:51.417Z,92.75
2023-04-16T23:09:03.304Z,92.73
2023-04-16T23:11:16.347Z,92.94
2023-04-16T23:13:42.985Z,93.29
2023-04-16T23:15:58.372Z,93.43
2023-04-16T23:18:23.444Z,92.97
2023-04-16T23:20:29.801Z,92.58
2023-04-16T23:22:41.268Z,92.73
2023-04-16T23:24:58.621Z,92.89
2023-04-16T23:27:12.428Z,92.65
2023-04-16T23:29:27.410Z,92.36
2023-04-16T23:31:45.528Z,92.60
2023-04-16T23:34:00.722Z,92.52
2023-04-16T23:36:11.114Z,92.01
2023-04-16T23:38:16.057Z,92.25
2023-04-16T23:40:22.544Z,92.37
2023-04-16T23:42:27.509Z,91.98
2023-04-16T23:44:32.501Z,92.63
2023-04-16T23:46:39.640Z,92.96
2023-04-16T23:48:44.846Z,92.95
2023-04-16T23:50:52.822Z,92.60
2023-04-16T23:53:00.840Z,92.51
2023-04-16T23:55:06.073Z,92.54
2023-04-16T23:57:11.814Z,92.42
2023-04-16T23:59:21.177Z,92.40
